createdAt,value
2023-02-09T00:00:48.994Z,99.90
2023-02-09T00:15:55.933Z,99.90
2023-02-09T00:30:58.146Z,99.90
2023-02-09T00:46:00.266Z,99.90
2023-02-09T01:01:02.313Z,99.90
2023-02-09T01:16:12.944Z,99.90
2023-02-09T01:31:24.786Z,99.90
2023-02-09T01:46:32.351Z,99.90
2023-02-09T02:01:34.409Z,99.90
2023-02-09T02:17:04.795Z,99.90
2023-02-09T02:32:24.290Z,99.90
2023-02-09T02:47:31.641Z,99.90
2023-02-09T03:02:43.650Z,99.90
2023-02-09T03:18:05.754Z,99.90
2023-02-09T03:33:21.110Z,99.90
2023-02-09T03:48:23.099Z,99.90
2023-02-09T04:03:25.146Z,99.90
2023-02-09T04:18:27.216Z,99.90
2023-02-09T04:33:29.241Z,99.90
2023-02-09T04:48:31.230Z,99.90
2023-02-09T05:03:33.756Z,99.90
2023-02-09T05:18:36.443Z,99.90
2023-02-09T05:33:38.464Z,99.90
2023-02-09T05:48:40.419Z,99.90
2023-02-09T06:03:42.458Z,99.90
2023-02-09T06:18:44.609Z,99.90
2023-02-09T06:33:46.602Z,99.90
2023-02-09T06:48:48.548Z,99.90
2023-02-09T07:03:50.577Z,99.90
2023-02-09T07:18:52.539Z,99.90
2023-02-09T07:33:55.972Z,99.90
2023-02-09T07:49:00.861Z,99.90
2023-02-09T08:04:04.186Z,99.90
2023-02-09T08:19:17.055Z,99.90
2023-02-09T08:34:19.110Z,97.30
2023-02-09T08:49:21.062Z,94.00
2023-02-09T09:04:23.417Z,91.10
2023-02-09T09:19:26.434Z,90.10
2023-02-09T09:34:29.038Z,87.30
2023-02-09T09:49:33.189Z,84.30
2023-02-09T10:04:35.329Z,84.00
2023-02-09T10:19:37.342Z,79.20
2023-02-09T10:34:40.970Z,78.20
2023-02-09T10:49:43.078Z,76.70
2023-02-09T11:04:48.869Z,77.10
2023-02-09T11:19:59.971Z,75.00
2023-02-09T11:35:09.251Z,74.10
2023-02-09T11:50:22.447Z,75.50
2023-02-09T12:05:25.134Z,75.40
2023-02-09T12:20:38.521Z,74.70
2023-02-09T12:35:41.273Z,74.50
2023-02-09T12:50:43.392Z,74.70
2023-02-09T13:05:47.890Z,75.90
2023-02-09T13:21:08.229Z,77.60
2023-02-09T13:36:45.782Z,78.30
2023-02-09T13:52:07.585Z,82.20
2023-02-09T14:07:13.474Z,81.90
2023-02-09T14:22:39.309Z,83.00
2023-02-09T14:37:42.522Z,86.20
2023-02-09T14:52:47.476Z,87.30
2023-02-09T15:07:54.148Z,90.00
2023-02-09T15:22:57.604Z,90.80
2023-02-09T15:38:01.561Z,91.40
2023-02-09T15:53:06.796Z,92.10
2023-02-09T16:08:30.333Z,93.90
2023-02-09T16:23:34.314Z,94.40
2023-02-09T16:38:36.480Z,95.00
2023-02-09T16:53:44.814Z,96.60
2023-02-09T17:08:47.993Z,99.10
2023-02-09T17:23:51.307Z,99.60
2023-02-09T17:38:53.840Z,99.60
2023-02-09T17:53:55.957Z,99.60
2023-02-09T18:08:57.957Z,99.90
2023-02-09T18:23:59.940Z,99.90
2023-02-09T18:39:02.358Z,99.90
2023-02-09T18:54:05.653Z,99.90
2023-02-09T19:09:07.724Z,99.90
2023-02-09T19:24:09.740Z,99.90
2023-02-09T19:39:12.034Z,99.90
2023-02-09T19:54:14.060Z,99.90
2023-02-09T20:09:16.688Z,99.90
2023-02-09T20:24:18.797Z,99.90
2023-02-09T20:39:23.604Z,99.90
2023-02-09T20:54:26.018Z,99.90
2023-02-09T21:09:29.395Z,99.90
2023-02-09T21:24:31.444Z,99.90
2023-02-09T21:39:33.465Z,98.80
2023-02-09T21:54:35.484Z,98.50
2023-02-09T22:09:37.628Z,98.80
2023-02-09T22:24:39.613Z,99.40
2023-02-09T22:39:41.608Z,99.30
2023-02-09T22:54:43.551Z,98.90
2023-02-09T23:09:45.502Z,99.90
2023-02-09T23:24:47.537Z,99.90
2023-02-09T23:39:49.489Z,99.90
2023-02-09T23:54:51.422Z,99.90
